sensor_id;sensor_type;location;lat;lon;timestamp;pressure;altitude;pressure_sealevel;temperature
71960;BMP280;59832;51.146;14.024;2023-12-29T00:00:08;97919.16;;;5.92
71960;BMP280;59832;51.146;14.024;2023-12-29T00:02:35;97915.16;;;5.91
71960;BMP280;59832;51.146;14.024;2023-12-29T00:05:02;97912.13;;;5.85
71960;BMP280;59832;51.146;14.024;2023-12-29T00:07:29;97915.16;;;5.91
71960;BMP280;59832;51.146;14.024;2023-12-29T00:09:55;97901.72;;;5.99
71960;BMP280;59832;51.146;14.024;2023-12-29T00:12:22;97890.66;;;6.04
71960;BMP280;59832;51.146;14.024;2023-12-29T00:14:48;97887.75;;;6.02
71960;BMP280;59832;51.146;14.024;2023-12-29T00:17:15;97881.31;;;6.04
71960;BMP280;59832;51.146;14.024;2023-12-29T00:19:42;97871.59;;;6.06
71960;BMP280;59832;51.146;14.024;2023-12-29T00:22:08;97864.94;;;5.89
71960;BMP280;59832;51.146;14.024;2023-12-29T00:24:35;97859.16;;;5.89
71960;BMP280;59832;51.146;14.024;2023-12-29T00:27:02;97857.31;;;5.86
71960;BMP280;59832;51.146;14.024;2023-12-29T00:29:28;97856.19;;;5.75
71960;BMP280;59832;51.146;14.024;2023-12-29T00:32:00;97851.59;;;5.77
71960;BMP280;59832;51.146;14.024;2023-12-29T00:34:27;97860.31;;;5.79
71960;BMP280;59832;51.146;14.024;2023-12-29T00:36:53;97853.91;;;5.70
71960;BMP280;59832;51.146;14.024;2023-12-29T00:39:20;97854.22;;;5.68
71960;BMP280;59832;51.146;14.024;2023-12-29T00:41:55;97850.16;;;5.55
71960;BMP280;59832;51.146;14.024;2023-12-29T00:44:24;97849.81;;;5.44
71960;BMP280;59832;51.146;14.024;2023-12-29T00:46:50;97849.50;;;5.46
71960;BMP280;59832;51.146;14.024;2023-12-29T00:49:17;97843.84;;;5.49
71960;BMP280;59832;51.146;14.024;2023-12-29T00:51:44;97832.00;;;5.74
71960;BMP280;59832;51.146;14.024;2023-12-29T00:54:10;97832.00;;;5.74
71960;BMP280;59832;51.146;14.024;2023-12-29T00:56:37;97837.84;;;5.86
71960;BMP280;59832;51.146;14.024;2023-12-29T00:59:03;97834.03;;;5.92
71960;BMP280;59832;51.146;14.024;2023-12-29T01:01:34;97842.13;;;5.98
71960;BMP280;59832;51.146;14.024;2023-12-29T01:04:02;97841.59;;;5.92
71960;BMP280;59832;51.146;14.024;2023-12-29T01:06:28;97850.44;;;5.98
71960;BMP280;59832;51.146;14.024;2023-12-29T01:08:55;97851.56;;;5.89
71960;BMP280;59832;51.146;14.024;2023-12-29T01:11:22;97862.47;;;6.02
71960;BMP280;59832;51.146;14.024;2023-12-29T01:13:48;97859.81;;;5.86
71960;BMP280;59832;51.146;14.024;2023-12-29T01:16:15;97867.88;;;5.79
71960;BMP280;59832;51.146;14.024;2023-12-29T01:18:41;97862.88;;;6.04
71960;BMP280;59832;51.146;14.024;2023-12-29T01:21:08;97856.31;;;5.90
71960;BMP280;59832;51.146;14.024;2023-12-29T01:23:35;97852.25;;;5.98
71960;BMP280;59832;51.146;14.024;2023-12-29T01:26:02;97849.31;;;5.96
71960;BMP280;59832;51.146;14.024;2023-12-29T01:28:28;97854.03;;;5.97
71960;BMP280;59832;51.146;14.024;2023-12-29T01:30:55;97850.34;;;5.95
71960;BMP280;59832;51.146;14.024;2023-12-29T01:33:22;97851.94;;;5.99
71960;BMP280;59832;51.146;14.024;2023-12-29T01:35:48;97850.53;;;5.90
71960;BMP280;59832;51.146;14.024;2023-12-29T01:38:15;97841.59;;;5.80
71960;BMP280;59832;51.146;14.024;2023-12-29T01:40:43;97851.28;;;6.03
71960;BMP280;59832;51.146;14.024;2023-12-29T01:43:10;97846.34;;;5.94
71960;BMP280;59832;51.146;14.024;2023-12-29T01:45:37;97838.66;;;5.90
71960;BMP280;59832;51.146;14.024;2023-12-29T01:48:18;97835.63;;;5.85
71960;BMP280;59832;51.146;14.024;2023-12-29T01:50:45;97837.16;;;5.77
71960;BMP280;59832;51.146;14.024;2023-12-29T01:53:12;97842.22;;;5.77
71960;BMP280;59832;51.146;14.024;2023-12-29T01:55:38;97833.16;;;5.76
71960;BMP280;59832;51.146;14.024;2023-12-29T01:58:05;97838.00;;;5.81
71960;BMP280;59832;51.146;14.024;2023-12-29T02:00:33;97825.38;;;5.81
71960;BMP280;59832;51.146;14.024;2023-12-29T02:03:00;97822.84;;;5.81
71960;BMP280;59832;51.146;14.024;2023-12-29T02:05:28;97821.19;;;5.85
71960;BMP280;59832;51.146;14.024;2023-12-29T02:07:55;97803.59;;;5.89
71960;BMP280;59832;51.146;14.024;2023-12-29T02:10:23;97810.38;;;5.85
71960;BMP280;59832;51.146;14.024;2023-12-29T02:12:50;97811.84;;;5.86
71960;BMP280;59832;51.146;14.024;2023-12-29T02:15:17;97805.00;;;5.86
71960;BMP280;59832;51.146;14.024;2023-12-29T02:17:45;97801.75;;;5.86
71960;BMP280;59832;51.146;14.024;2023-12-29T02:20:14;97801.50;;;5.91
71960;BMP280;59832;51.146;14.024;2023-12-29T02:22:41;97801.41;;;5.87
71960;BMP280;59832;51.146;14.024;2023-12-29T02:25:08;97798.53;;;5.89
71960;BMP280;59832;51.146;14.024;2023-12-29T02:28:22;97793.63;;;5.92
71960;BMP280;59832;51.146;14.024;2023-12-29T02:30:37;97788.06;;;5.87
71960;BMP280;59832;51.146;14.024;2023-12-29T02:33:08;97784.44;;;5.88
71960;BMP280;59832;51.146;14.024;2023-12-29T02:35:39;97763.13;;;5.85
71960;BMP280;59832;51.146;14.024;2023-12-29T02:38:07;97775.19;;;5.92
71960;BMP280;59832;51.146;14.024;2023-12-29T02:40:34;97754.25;;;5.91
71960;BMP280;59832;51.146;14.024;2023-12-29T02:43:01;97758.81;;;5.86
71960;BMP280;59832;51.146;14.024;2023-12-29T02:45:28;97759.13;;;5.84
71960;BMP280;59832;51.146;14.024;2023-12-29T02:47:55;97760.91;;;5.84
71960;BMP280;59832;51.146;14.024;2023-12-29T02:50:21;97761.22;;;5.82
71960;BMP280;59832;51.146;14.024;2023-12-29T02:52:48;97755.53;;;5.85
71960;BMP280;59832;51.146;14.024;2023-12-29T02:55:14;97754.56;;;6.02
71960;BMP280;59832;51.146;14.024;2023-12-29T02:57:41;97743.63;;;6.10
71960;BMP280;59832;51.146;14.024;2023-12-29T03:00:08;97746.59;;;6.00
71960;BMP280;59832;51.146;14.024;2023-12-29T03:02:35;97755.00;;;6.04
71960;BMP280;59832;51.146;14.024;2023-12-29T03:05:02;97758.47;;;6.12
71960;BMP280;59832;51.146;14.024;2023-12-29T03:07:28;97763.22;;;6.13
71960;BMP280;59832;51.146;14.024;2023-12-29T03:09:55;97754.78;;;6.21
71960;BMP280;59832;51.146;14.024;2023-12-29T03:12:21;97752.97;;;6.22
71960;BMP280;59832;51.146;14.024;2023-12-29T03:14:48;97757.91;;;6.18
71960;BMP280;59832;51.146;14.024;2023-12-29T03:17:15;97754.53;;;6.26
71960;BMP280;59832;51.146;14.024;2023-12-29T03:19:41;97754.84;;;6.25
71960;BMP280;59832;51.146;14.024;2023-12-29T03:22:09;97749.50;;;6.26
71960;BMP280;59832;51.146;14.024;2023-12-29T03:24:36;97757.38;;;6.37
71960;BMP280;59832;51.146;14.024;2023-12-29T03:27:03;97750.09;;;6.35
71960;BMP280;59832;51.146;14.024;2023-12-29T03:29:30;97739.38;;;6.38
71960;BMP280;59832;51.146;14.024;2023-12-29T03:31:56;97744.00;;;6.36
71960;BMP280;59832;51.146;14.024;2023-12-29T03:34:23;97737.31;;;6.44
71960;BMP280;59832;51.146;14.024;2023-12-29T03:36:50;97746.53;;;6.36
71960;BMP280;59832;51.146;14.024;2023-12-29T03:39:16;97748.50;;;6.43
71960;BMP280;59832;51.146;14.024;2023-12-29T03:41:43;97746.53;;;6.36
71960;BMP280;59832;51.146;14.024;2023-12-29T03:44:09;97742.75;;;6.30
71960;BMP280;59832;51.146;14.024;2023-12-29T03:46:36;97742.13;;;6.21
71960;BMP280;59832;51.146;14.024;2023-12-29T03:49:02;97745.84;;;6.12
71960;BMP280;59832;51.146;14.024;2023-12-29T03:51:29;97738.88;;;6.09
71960;BMP280;59832;51.146;14.024;2023-12-29T03:53:56;97732.97;;;6.17
71960;BMP280;59832;51.146;14.024;2023-12-29T03:56:24;97734.06;;;6.31
71960;BMP280;59832;51.146;14.024;2023-12-29T03:58:51;97719.28;;;6.18
71960;BMP280;59832;51.146;14.024;2023-12-29T04:01:18;97725.13;;;6.34
71960;BMP280;59832;51.146;14.024;2023-12-29T04:03:46;97715.75;;;6.34
71960;BMP280;59832;51.146;14.024;2023-12-29T04:06:13;97706.63;;;6.30
71960;BMP280;59832;51.146;14.024;2023-12-29T04:08:39;97713.13;;;6.31
71960;BMP280;59832;51.146;14.024;2023-12-29T04:11:06;97706.38;;;6.35
71960;BMP280;59832;51.146;14.024;2023-12-29T04:13:32;97705.34;;;6.36
71960;BMP280;59832;51.146;14.024;2023-12-29T04:15:59;97710.47;;;6.39
71960;BMP280;59832;51.146;14.024;2023-12-29T04:18:25;97705.75;;;6.38
71960;BMP280;59832;51.146;14.024;2023-12-29T04:20:52;97707.72;;;6.44
71960;BMP280;59832;51.146;14.024;2023-12-29T04:23:19;97701.97;;;6.60
71960;BMP280;59832;51.146;14.024;2023-12-29T04:25:45;97699.03;;;6.58
71960;BMP280;59832;51.146;14.024;2023-12-29T04:28:12;97702.72;;;6.60
71960;BMP280;59832;51.146;14.024;2023-12-29T04:30:39;97683.50;;;6.71
71960;BMP280;59832;51.146;14.024;2023-12-29T04:33:06;97695.41;;;6.71
71960;BMP280;59832;51.146;14.024;2023-12-29T04:35:32;97680.41;;;6.78
71960;BMP280;59832;51.146;14.024;2023-12-29T04:37:59;97688.56;;;6.87
71960;BMP280;59832;51.146;14.024;2023-12-29T04:40:27;97684.38;;;6.91
71960;BMP280;59832;51.146;14.024;2023-12-29T04:42:53;97682.03;;;6.86
71960;BMP280;59832;51.146;14.024;2023-12-29T04:45:20;97679.78;;;6.81
71960;BMP280;59832;51.146;14.024;2023-12-29T04:47:47;97677.72;;;6.86
71960;BMP280;59832;51.146;14.024;2023-12-29T04:50:13;97680.50;;;6.97
71960;BMP280;59832;51.146;14.024;2023-12-29T04:52:40;97689.75;;;6.90
71960;BMP280;59832;51.146;14.024;2023-12-29T04:55:07;97692.28;;;6.90
71960;BMP280;59832;51.146;14.024;2023-12-29T04:57:34;97689.00;;;6.89
71960;BMP280;59832;51.146;14.024;2023-12-29T05:00:00;97686.16;;;6.91
71960;BMP280;59832;51.146;14.024;2023-12-29T05:02:27;97683.53;;;6.87
71960;BMP280;59832;51.146;14.024;2023-12-29T05:04:54;97677.16;;;6.93
71960;BMP280;59832;51.146;14.024;2023-12-29T05:07:21;97671.44;;;6.96
71960;BMP280;59832;51.146;14.024;2023-12-29T05:09:48;97668.34;;;7.03
71960;BMP280;59832;51.146;14.024;2023-12-29T05:12:15;97670.66;;;7.08
71960;BMP280;59832;51.146;14.024;2023-12-29T05:14:41;97667.38;;;7.23
71960;BMP280;59832;51.146;14.024;2023-12-29T05:17:08;97658.53;;;7.33
71960;BMP280;59832;51.146;14.024;2023-12-29T05:19:35;97676.25;;;7.33
71960;BMP280;59832;51.146;14.024;2023-12-29T05:22:01;97681.41;;;7.36
71960;BMP280;59832;51.146;14.024;2023-12-29T05:24:28;97667.59;;;7.49
71960;BMP280;59832;51.146;14.024;2023-12-29T05:26:55;97663.66;;;7.52
71960;BMP280;59832;51.146;14.024;2023-12-29T05:29:21;97670.88;;;7.50
71960;BMP280;59832;51.146;14.024;2023-12-29T05:31:48;97663.50;;;7.45
71960;BMP280;59832;51.146;14.024;2023-12-29T05:34:14;97655.50;;;7.43
71960;BMP280;59832;51.146;14.024;2023-12-29T05:36:41;97659.91;;;7.46
71960;BMP280;59832;51.146;14.024;2023-12-29T05:39:11;97661.66;;;7.42
71960;BMP280;59832;51.146;14.024;2023-12-29T05:41:37;97670.94;;;7.38
71960;BMP280;59832;51.146;14.024;2023-12-29T05:44:04;97672.53;;;7.42
71960;BMP280;59832;51.146;14.024;2023-12-29T05:46:30;97678.53;;;7.38
71960;BMP280;59832;51.146;14.024;2023-12-29T05:48:57;97677.97;;;7.28
71960;BMP280;59832;51.146;14.024;2023-12-29T05:51:23;97681.06;;;7.38
71960;BMP280;59832;51.146;14.024;2023-12-29T05:53:50;97672.84;;;7.41
71960;BMP280;59832;51.146;14.024;2023-12-29T05:56:16;97682.88;;;7.37
71960;BMP280;59832;51.146;14.024;2023-12-29T05:58:43;97683.13;;;7.32
71960;BMP280;59832;51.146;14.024;2023-12-29T06:01:10;97685.41;;;7.37
71960;BMP280;59832;51.146;14.024;2023-12-29T06:03:37;97690.66;;;7.28
71960;BMP280;59832;51.146;14.024;2023-12-29T06:06:04;97686.97;;;7.42
71960;BMP280;59832;51.146;14.024;2023-12-29T06:08:30;97689.00;;;7.36
71960;BMP280;59832;51.146;14.024;2023-12-29T06:10:57;97689.59;;;7.29
71960;BMP280;59832;51.146;14.024;2023-12-29T06:13:23;97676.84;;;7.42
71960;BMP280;59832;51.146;14.024;2023-12-29T06:15:50;97676.19;;;7.29
71960;BMP280;59832;51.146;14.024;2023-12-29T06:18:16;97677.56;;;7.26
71960;BMP280;59832;51.146;14.024;2023-12-29T06:20:43;97679.94;;;7.19
71960;BMP280;59832;51.146;14.024;2023-12-29T06:23:10;97670.72;;;7.11
71960;BMP280;59832;51.146;14.024;2023-12-29T06:25:37;97675.13;;;7.14
71960;BMP280;59832;51.146;14.024;2023-12-29T06:28:06;97671.03;;;7.10
71960;BMP280;59832;51.146;14.024;2023-12-29T06:30:33;97670.66;;;7.08
71960;BMP280;59832;51.146;14.024;2023-12-29T06:33:00;97668.84;;;7.08
71960;BMP280;59832;51.146;14.024;2023-12-29T06:35:26;97673.66;;;6.98
71960;BMP280;59832;51.146;14.024;2023-12-29T06:37:53;97674.72;;;6.97
71960;BMP280;59832;51.146;14.024;2023-12-29T06:40:19;97677.97;;;6.97
71960;BMP280;59832;51.146;14.024;2023-12-29T06:42:46;97678.22;;;6.92
71960;BMP280;59832;51.146;14.024;2023-12-29T06:45:12;97668.34;;;6.87
71960;BMP280;59832;51.146;14.024;2023-12-29T06:47:39;97659.78;;;6.92
71960;BMP280;59832;51.146;14.024;2023-12-29T06:50:06;97657.91;;;6.89
71960;BMP280;59832;51.146;14.024;2023-12-29T06:52:33;97650.00;;;6.90
71960;BMP280;59832;51.146;14.024;2023-12-29T06:55:01;97633.25;;;6.85
71960;BMP280;59832;51.146;14.024;2023-12-29T06:57:28;97625.84;;;6.93
71960;BMP280;59832;51.146;14.024;2023-12-29T06:59:54;97644.78;;;6.99
71960;BMP280;59832;51.146;14.024;2023-12-29T07:02:21;97647.38;;;7.02
71960;BMP280;59832;51.146;14.024;2023-12-29T07:04:48;97650.88;;;7.13
71960;BMP280;59832;51.146;14.024;2023-12-29T07:07:14;97659.06;;;7.07
71960;BMP280;59832;51.146;14.024;2023-12-29T07:09:41;97645.91;;;7.01
71960;BMP280;59832;51.146;14.024;2023-12-29T07:12:08;97643.38;;;7.01
71960;BMP280;59832;51.146;14.024;2023-12-29T07:14:35;97629.16;;;7.12
71960;BMP280;59832;51.146;14.024;2023-12-29T07:17:02;97626.88;;;7.07
71960;BMP280;59832;51.146;14.024;2023-12-29T07:19:29;97636.66;;;7.09
71960;BMP280;59832;51.146;14.024;2023-12-29T07:22:04;97639.19;;;7.09
71960;BMP280;59832;51.146;14.024;2023-12-29T07:24:35;97625.41;;;7.22
71960;BMP280;59832;51.146;14.024;2023-12-29T07:27:03;97629.66;;;7.18
71960;BMP280;59832;51.146;14.024;2023-12-29T07:29:31;97633.19;;;7.13
71960;BMP280;59832;51.146;14.024;2023-12-29T07:31:57;97642.13;;;7.26
71960;BMP280;59832;51.146;14.024;2023-12-29T07:34:25;97648.91;;;7.22
71960;BMP280;59832;51.146;14.024;2023-12-29T07:36:52;97656.34;;;7.31
71960;BMP280;59832;51.146;14.024;2023-12-29T07:39:19;97643.19;;;7.41
71960;BMP280;59832;51.146;14.024;2023-12-29T07:41:46;97648.25;;;7.41
71960;BMP280;59832;51.146;14.024;2023-12-29T07:44:14;97655.56;;;7.46
71960;BMP280;59832;51.146;14.024;2023-12-29T07:46:43;97661.13;;;7.52
71960;BMP280;59832;51.146;14.024;2023-12-29T07:49:10;97661.59;;;7.57
71960;BMP280;59832;51.146;14.024;2023-12-29T07:51:41;97665.13;;;7.53
71960;BMP280;59832;51.146;14.024;2023-12-29T07:54:09;97675.25;;;7.53
71960;BMP280;59832;51.146;14.024;2023-12-29T07:56:35;97691.50;;;7.52
71960;BMP280;59832;51.146;14.024;2023-12-29T07:59:04;97685.69;;;7.67
71960;BMP280;59832;51.146;14.024;2023-12-29T08:01:31;97679.41;;;7.61
71960;BMP280;59832;51.146;14.024;2023-12-29T08:03:57;97693.59;;;7.65
71960;BMP280;59832;51.146;14.024;2023-12-29T08:06:24;97712.75;;;7.63
71960;BMP280;59832;51.146;14.024;2023-12-29T08:08:51;97706.53;;;7.76
71960;BMP280;59832;51.146;14.024;2023-12-29T08:11:17;97703.47;;;7.86
71960;BMP280;59832;51.146;14.024;2023-12-29T08:13:46;97710.53;;;7.96
71960;BMP280;59832;51.146;14.024;2023-12-29T08:16:12;97704.72;;;7.96
71960;BMP280;59832;51.146;14.024;2023-12-29T08:18:39;97712.28;;;7.92
71960;BMP280;59832;51.146;14.024;2023-12-29T08:21:06;97705.16;;;7.98
71960;BMP280;59832;51.146;14.024;2023-12-29T08:23:33;97714.75;;;8.08
71960;BMP280;59832;51.146;14.024;2023-12-29T08:26:02;97718.34;;;8.07
71960;BMP280;59832;51.146;14.024;2023-12-29T08:28:29;97720.63;;;8.12
71960;BMP280;59832;51.146;14.024;2023-12-29T08:30:55;97722.16;;;8.16
71960;BMP280;59832;51.146;14.024;2023-12-29T08:33:23;97726.50;;;8.16
71960;BMP280;59832;51.146;14.024;2023-12-29T08:35:50;97734.91;;;8.20
71960;BMP280;59832;51.146;14.024;2023-12-29T08:38:16;97724.38;;;8.18
71960;BMP280;59832;51.146;14.024;2023-12-29T08:40:43;97721.88;;;8.22
71960;BMP280;59832;51.146;14.024;2023-12-29T08:43:10;97724.28;;;8.34
71960;BMP280;59832;51.146;14.024;2023-12-29T08:45:36;97712.81;;;8.40
71960;BMP280;59832;51.146;14.024;2023-12-29T08:48:05;97714.22;;;8.37
71960;BMP280;59832;51.146;14.024;2023-12-29T08:50:32;97717.63;;;8.45
71960;BMP280;59832;51.146;14.024;2023-12-29T08:52:58;97721.09;;;8.37
71960;BMP280;59832;51.146;14.024;2023-12-29T08:55:25;97722.47;;;8.53
71960;BMP280;59832;51.146;14.024;2023-12-29T08:57:51;97713.53;;;8.59
71960;BMP280;59832;51.146;14.024;2023-12-29T09:00:18;97713.22;;;8.65
71960;BMP280;59832;51.146;14.024;2023-12-29T09:02:45;97729.13;;;8.61
71960;BMP280;59832;51.146;14.024;2023-12-29T09:05:12;97724.97;;;8.73
71960;BMP280;59832;51.146;14.024;2023-12-29T09:07:39;97720.25;;;8.71
71960;BMP280;59832;51.146;14.024;2023-12-29T09:10:06;97720.31;;;8.75
71960;BMP280;59832;51.146;14.024;2023-12-29T09:12:39;97714.44;;;8.71
71960;BMP280;59832;51.146;14.024;2023-12-29T09:15:06;97721.25;;;8.67
71960;BMP280;59832;51.146;14.024;2023-12-29T09:17:34;97716.66;;;8.72
71960;BMP280;59832;51.146;14.024;2023-12-29T09:20:01;97721.31;;;8.70
71960;BMP280;59832;51.146;14.024;2023-12-29T09:22:35;97718.31;;;8.65
71960;BMP280;59832;51.146;14.024;2023-12-29T09:25:02;97708.91;;;8.65
71960;BMP280;59832;51.146;14.024;2023-12-29T09:27:29;97708.25;;;8.68
71960;BMP280;59832;51.146;14.024;2023-12-29T09:29:55;97719.13;;;8.69
71960;BMP280;59832;51.146;14.024;2023-12-29T09:32:22;97711.78;;;8.64
71960;BMP280;59832;51.146;14.024;2023-12-29T09:34:48;97713.00;;;8.70
71960;BMP280;59832;51.146;14.024;2023-12-29T09:37:15;97712.84;;;8.63
71960;BMP280;59832;51.146;14.024;2023-12-29T09:39:42;97711.31;;;8.58
71960;BMP280;59832;51.146;14.024;2023-12-29T09:42:16;97703.72;;;8.58
71960;BMP280;59832;51.146;14.024;2023-12-29T09:44:46;97714.53;;;8.55
71960;BMP280;59832;51.146;14.024;2023-12-29T09:47:20;97708.06;;;8.57
71960;BMP280;59832;51.146;14.024;2023-12-29T09:49:49;97711.38;;;8.61
71960;BMP280;59832;51.146;14.024;2023-12-29T09:52:16;97701.38;;;8.69
71960;BMP280;59832;51.146;14.024;2023-12-29T09:54:44;97714.66;;;8.62
71960;BMP280;59832;51.146;14.024;2023-12-29T09:57:10;97705.19;;;8.59
71960;BMP280;59832;51.146;14.024;2023-12-29T09:59:38;97707.19;;;8.69
71960;BMP280;59832;51.146;14.024;2023-12-29T10:02:14;97715.53;;;8.70
71960;BMP280;59832;51.146;14.024;2023-12-29T10:04:42;97724.81;;;8.62
71960;BMP280;59832;51.146;14.024;2023-12-29T10:07:15;97726.66;;;8.65
71960;BMP280;59832;51.146;14.024;2023-12-29T10:09:42;97732.16;;;8.67
71960;BMP280;59832;51.146;14.024;2023-12-29T10:12:09;97716.25;;;8.70
71960;BMP280;59832;51.146;14.024;2023-12-29T10:14:57;97720.59;;;8.70
71960;BMP280;59832;51.146;14.024;2023-12-29T10:23:10;97726.06;;;8.72
71960;BMP280;59832;51.146;14.024;2023-12-29T10:25:40;97726.00;;;8.68
71960;BMP280;59832;51.146;14.024;2023-12-29T10:28:09;97717.75;;;8.75
71960;BMP280;59832;51.146;14.024;2023-12-29T10:30:36;97707.19;;;8.69
71960;BMP280;59832;51.146;14.024;2023-12-29T10:33:04;97715.56;;;8.73
71960;BMP280;59832;51.146;14.024;2023-12-29T10:35:32;97733.81;;;8.79
71960;BMP280;59832;51.146;14.024;2023-12-29T10:38:11;97729.50;;;8.83
71960;BMP280;59832;51.146;14.024;2023-12-29T10:40:39;97731.69;;;8.84
71960;BMP280;59832;51.146;14.024;2023-12-29T10:43:06;97729.16;;;8.84
71960;BMP280;59832;51.146;14.024;2023-12-29T10:45:35;97720.34;;;8.97
71960;BMP280;59832;51.146;14.024;2023-12-29T10:48:03;97725.66;;;8.92
71960;BMP280;59832;51.146;14.024;2023-12-29T10:50:30;97722.66;;;9.06
71960;BMP280;59832;51.146;14.024;2023-12-29T10:53:15;97721.59;;;9.07
71960;BMP280;59832;51.146;14.024;2023-12-29T10:55:45;97715.56;;;9.19
71960;BMP280;59832;51.146;14.024;2023-12-29T10:58:11;97726.06;;;9.17
71960;BMP280;59832;51.146;14.024;2023-12-29T11:00:39;97737.78;;;9.25
71960;BMP280;59832;51.146;14.024;2023-12-29T11:03:07;97726.63;;;9.30
71960;BMP280;59832;51.146;14.024;2023-12-29T11:05:34;97728.56;;;9.40
71960;BMP280;59832;51.146;14.024;2023-12-29T11:08:00;97712.66;;;9.43
71960;BMP280;59832;51.146;14.024;2023-12-29T11:10:27;97710.16;;;9.46
71960;BMP280;59832;51.146;14.024;2023-12-29T11:12:56;97708.00;;;9.48
71960;BMP280;59832;51.146;14.024;2023-12-29T11:15:24;97710.69;;;9.59
71960;BMP280;59832;51.146;14.024;2023-12-29T11:17:51;97709.72;;;9.67
71960;BMP280;59832;51.146;14.024;2023-12-29T11:20:18;97711.28;;;9.75
71960;BMP280;59832;51.146;14.024;2023-12-29T11:22:48;97720.59;;;9.68
71960;BMP280;59832;51.146;14.024;2023-12-29T11:25:14;97711.91;;;9.69
71960;BMP280;59832;51.146;14.024;2023-12-29T11:27:42;97714.41;;;9.65
71960;BMP280;59832;51.146;14.024;2023-12-29T11:30:11;97705.56;;;9.56
71960;BMP280;59832;51.146;14.024;2023-12-29T11:32:56;97696.78;;;9.79
71960;BMP280;59832;51.146;14.024;2023-12-29T11:35:32;97708.03;;;9.78
71960;BMP280;59832;51.146;14.024;2023-12-29T11:41:20;97707.94;;;9.71
71960;BMP280;59832;51.146;14.024;2023-12-29T11:44:00;97707.19;;;9.67
71960;BMP280;59832;51.146;14.024;2023-12-29T11:46:42;97707.47;;;9.62
71960;BMP280;59832;51.146;14.024;2023-12-29T11:49:10;97703.53;;;9.68
71960;BMP280;59832;51.146;14.024;2023-12-29T11:51:40;97701.69;;;9.65
71960;BMP280;59832;51.146;14.024;2023-12-29T11:54:07;97700.63;;;9.66
71960;BMP280;59832;51.146;14.024;2023-12-29T11:56:39;97693.34;;;9.65
71960;BMP280;59832;51.146;14.024;2023-12-29T11:59:14;97690.06;;;9.64
71960;BMP280;59832;51.146;14.024;2023-12-29T12:01:42;97697.34;;;9.66
71960;BMP280;59832;51.146;14.024;2023-12-29T12:04:40;97688.66;;;9.67
71960;BMP280;59832;51.146;14.024;2023-12-29T12:07:15;97676.44;;;9.76
71960;BMP280;59832;51.146;14.024;2023-12-29T12:09:42;97668.84;;;9.79
71960;BMP280;59832;51.146;14.024;2023-12-29T12:12:09;97667.69;;;9.77
71960;BMP280;59832;51.146;14.024;2023-12-29T12:15:02;97673.16;;;9.75
71960;BMP280;59832;51.146;14.024;2023-12-29T12:17:33;97666.97;;;9.76
71960;BMP280;59832;51.146;14.024;2023-12-29T12:20:09;97662.25;;;9.75
71960;BMP280;59832;51.146;14.024;2023-12-29T12:22:36;97665.56;;;9.79
71960;BMP280;59832;51.146;14.024;2023-12-29T12:25:05;97667.38;;;9.78
71960;BMP280;59832;51.146;14.024;2023-12-29T12:27:33;97657.97;;;9.82
71960;BMP280;59832;51.146;14.024;2023-12-29T12:30:00;97643.72;;;9.74
71960;BMP280;59832;51.146;14.024;2023-12-29T12:32:27;97631.03;;;9.74
71960;BMP280;59832;51.146;14.024;2023-12-29T12:34:55;97617.94;;;9.72
71960;BMP280;59832;51.146;14.024;2023-12-29T12:37:25;97627.31;;;9.68
71960;BMP280;59832;51.146;14.024;2023-12-29T12:39:52;97633.84;;;9.66
71960;BMP280;59832;51.146;14.024;2023-12-29T12:42:20;97623.63;;;9.62
71960;BMP280;59832;51.146;14.024;2023-12-29T12:45:06;97634.91;;;9.65
71960;BMP280;59832;51.146;14.024;2023-12-29T12:47:42;97632.72;;;9.63
71960;BMP280;59832;51.146;14.024;2023-12-29T12:50:12;97642.56;;;9.68
71960;BMP280;59832;51.146;14.024;2023-12-29T12:52:42;97641.97;;;9.78
71960;BMP280;59832;51.146;14.024;2023-12-29T12:55:10;97654.00;;;9.81
71960;BMP280;59832;51.146;14.024;2023-12-29T12:57:37;97644.56;;;9.85
71960;BMP280;59832;51.146;14.024;2023-12-29T13:00:04;97651.06;;;9.79
71960;BMP280;59832;51.146;14.024;2023-12-29T13:02:33;97644.97;;;9.87
71960;BMP280;59832;51.146;14.024;2023-12-29T13:05:00;97643.81;;;9.81
71960;BMP280;59832;51.146;14.024;2023-12-29T13:07:29;97639.53;;;9.89
71960;BMP280;59832;51.146;14.024;2023-12-29T13:09:56;97646.81;;;9.90
71960;BMP280;59832;51.146;14.024;2023-12-29T13:12:22;97646.44;;;9.88
71960;BMP280;59832;51.146;14.024;2023-12-29T13:14:49;97644.34;;;9.98
71960;BMP280;59832;51.146;14.024;2023-12-29T13:17:15;97644.72;;;10.00
71960;BMP280;59832;51.146;14.024;2023-12-29T13:19:43;97642.88;;;9.96
71960;BMP280;59832;51.146;14.024;2023-12-29T13:22:11;97640.69;;;9.95
71960;BMP280;59832;51.146;14.024;2023-12-29T13:24:45;97631.94;;;9.92
71960;BMP280;59832;51.146;14.024;2023-12-29T13:27:12;97630.50;;;9.95
71960;BMP280;59832;51.146;14.024;2023-12-29T13:29:39;97627.25;;;9.94
71960;BMP280;59832;51.146;14.024;2023-12-29T13:32:10;97632.31;;;9.94
71960;BMP280;59832;51.146;14.024;2023-12-29T13:35:06;97616.97;;;9.84
71960;BMP280;59832;51.146;14.024;2023-12-29T13:38:10;97617.31;;;9.82
71960;BMP280;59832;51.146;14.024;2023-12-29T13:40:42;97628.59;;;9.85
71960;BMP280;59832;51.146;14.024;2023-12-29T13:43:13;97622.75;;;9.81
71960;BMP280;59832;51.146;14.024;2023-12-29T13:45:42;97618.69;;;9.73
71960;BMP280;59832;51.146;14.024;2023-12-29T13:48:09;97621.56;;;9.71
71960;BMP280;59832;51.146;14.024;2023-12-29T13:50:37;97602.38;;;9.77
71960;BMP280;59832;51.146;14.024;2023-12-29T13:53:07;97599.06;;;9.73
71960;BMP280;59832;51.146;14.024;2023-12-29T13:55:36;97599.44;;;9.72
71960;BMP280;59832;51.146;14.024;2023-12-29T13:58:09;97597.25;;;9.74
71960;BMP280;59832;51.146;14.024;2023-12-29T14:00:37;97608.13;;;9.71
71960;BMP280;59832;51.146;14.024;2023-12-29T14:03:15;97602.28;;;9.67
71960;BMP280;59832;51.146;14.024;2023-12-29T14:05:55;97602.31;;;9.70
71960;BMP280;59832;51.146;14.024;2023-12-29T14:10:51;97594.25;;;9.65
71960;BMP280;59832;51.146;14.024;2023-12-29T14:13:18;97592.44;;;9.65
71960;BMP280;59832;51.146;14.024;2023-12-29T14:15:46;97616.41;;;9.68
71960;BMP280;59832;51.146;14.024;2023-12-29T14:21:29;97618.63;;;9.69
71960;BMP280;59832;51.146;14.024;2023-12-29T14:24:11;97621.50;;;9.68
71960;BMP280;59832;51.146;14.024;2023-12-29T14:29:11;97610.53;;;9.60
71960;BMP280;59832;51.146;14.024;2023-12-29T14:31:40;97611.94;;;9.54